createdAt,value
2022-11-13T00:00:57.164Z,48.51
2022-11-13T00:01:57.214Z,49.67
2022-11-13T00:02:58.250Z,47.95
2022-11-13T00:03:57.156Z,50.31
2022-11-13T00:04:57.120Z,47.19
2022-11-13T00:05:57.115Z,50.54
2022-11-13T00:06:59.419Z,54.97
2022-11-13T00:07:58.115Z,53.21
2022-11-13T00:08:57.104Z,59.68
2022-11-13T00:09:57.082Z,46.81
2022-11-13T00:10:57.074Z,51.12
2022-11-13T00:11:57.063Z,48.23
2022-11-13T00:12:57.057Z,46.58
2022-11-13T00:13:57.057Z,49.95
2022-11-13T00:14:57.035Z,49.06
2022-11-13T00:15:57.020Z,51.01
2022-11-13T00:16:57.044Z,64.92
2022-11-13T00:17:57.068Z,47.60
2022-11-13T00:18:57.004Z,53.64
2022-11-13T00:19:57.086Z,53.03
2022-11-13T00:20:56.964Z,48.89
2022-11-13T00:21:56.980Z,49.87
2022-11-13T00:22:56.947Z,47.47
2022-11-13T00:23:57.048Z,46.38
2022-11-13T00:24:56.932Z,55.55
2022-11-13T00:25:56.933Z,47.59
2022-11-13T00:26:56.956Z,52.91
2022-11-13T00:27:56.908Z,46.10
2022-11-13T00:28:56.897Z,54.87
2022-11-13T00:29:56.887Z,48.87
2022-11-13T00:30:56.865Z,45.70
2022-11-13T00:31:56.901Z,47.92
2022-11-13T00:32:56.850Z,48.94
2022-11-13T00:34:58.859Z,52.54
2022-11-13T00:35:56.885Z,62.92
2022-11-13T00:36:56.804Z,51.73
2022-11-13T00:37:56.800Z,50.11
2022-11-13T00:38:56.791Z,49.29
2022-11-13T00:39:59.638Z,46.63
2022-11-13T00:40:57.787Z,47.76
2022-11-13T00:41:56.763Z,49.66
2022-11-13T00:42:56.754Z,52.48
2022-11-13T00:43:56.740Z,50.14
2022-11-13T00:44:56.725Z,50.36
2022-11-13T00:45:56.737Z,51.48
2022-11-13T00:46:56.710Z,48.60
2022-11-13T00:47:56.703Z,49.73
2022-11-13T00:48:56.691Z,48.79
2022-11-13T00:49:56.754Z,49.80
2022-11-13T00:50:56.684Z,49.60
2022-11-13T00:51:56.680Z,48.86
2022-11-13T00:52:56.658Z,51.95
2022-11-13T00:53:56.676Z,44.53
2022-11-13T00:54:56.626Z,50.51
2022-11-13T00:55:56.743Z,48.59
2022-11-13T00:56:56.633Z,45.30
2022-11-13T00:57:56.609Z,49.79
2022-11-13T00:58:56.611Z,45.48
2022-11-13T00:59:56.607Z,50.20
2022-11-13T01:00:56.602Z,46.55
2022-11-13T01:01:56.618Z,45.98
2022-11-13T01:02:56.552Z,46.27
2022-11-13T01:03:56.602Z,49.02
2022-11-13T01:04:56.533Z,47.50
2022-11-13T01:05:56.623Z,45.67
2022-11-13T01:06:56.635Z,51.39
2022-11-13T01:07:56.514Z,51.69
2022-11-13T01:08:56.500Z,45.55
2022-11-13T01:09:56.489Z,51.24
2022-11-13T01:10:56.470Z,51.58
2022-11-13T01:11:56.513Z,52.14
2022-11-13T01:12:56.480Z,61.87
2022-11-13T01:13:56.454Z,50.05
2022-11-13T01:14:56.439Z,46.49
2022-11-13T01:15:56.426Z,45.85
2022-11-13T01:16:56.470Z,47.40
2022-11-13T01:17:56.486Z,46.57
2022-11-13T01:18:56.514Z,46.05
2022-11-13T01:19:56.400Z,47.16
2022-11-13T01:20:56.380Z,50.75
2022-11-13T01:21:56.442Z,46.97
2022-11-13T01:22:56.386Z,47.74
2022-11-13T01:23:57.365Z,50.89
2022-11-13T01:24:56.342Z,51.93
2022-11-13T01:25:56.332Z,48.91
2022-11-13T01:26:56.379Z,47.07
2022-11-13T01:27:56.357Z,47.08
2022-11-13T01:28:56.302Z,48.88
2022-11-13T01:29:56.306Z,45.04
2022-11-13T01:30:56.288Z,47.78
2022-11-13T01:31:56.292Z,48.32
2022-11-13T01:32:56.265Z,45.56
2022-11-13T01:33:56.280Z,49.14
2022-11-13T01:34:56.249Z,48.77
2022-11-13T01:35:56.246Z,47.36
2022-11-13T01:36:56.252Z,48.76
2022-11-13T01:37:56.301Z,44.34
2022-11-13T01:38:56.232Z,46.65
2022-11-13T01:39:56.200Z,49.24
2022-11-13T01:40:56.203Z,45.50
2022-11-13T01:41:56.232Z,44.82
2022-11-13T01:42:56.170Z,46.24
2022-11-13T01:43:56.173Z,50.75
2022-11-13T01:44:56.152Z,53.27
2022-11-13T01:45:56.185Z,50.32
2022-11-13T01:46:56.133Z,49.17
2022-11-13T01:47:56.144Z,46.92
2022-11-13T01:48:56.121Z,45.65
2022-11-13T01:49:56.110Z,47.24
2022-11-13T01:50:56.088Z,46.34
2022-11-13T01:51:56.075Z,44.96
2022-11-13T01:52:56.084Z,45.00
2022-11-13T01:53:56.141Z,47.43
2022-11-13T01:54:56.078Z,44.79
2022-11-13T01:55:56.050Z,45.75
2022-11-13T01:56:56.039Z,50.24
2022-11-13T01:57:56.058Z,51.47
2022-11-13T01:58:56.020Z,47.29
2022-11-13T01:59:56.009Z,45.45
2022-11-13T02:00:56.015Z,47.94
2022-11-13T02:01:56.071Z,48.58
2022-11-13T02:02:55.999Z,46.71
2022-11-13T02:03:55.977Z,44.60
2022-11-13T02:04:55.968Z,44.09
2022-11-13T02:05:55.961Z,47.80
2022-11-13T02:06:56.003Z,44.34
2022-11-13T02:07:55.928Z,44.30
2022-11-13T02:08:55.950Z,47.91
2022-11-13T02:09:55.920Z,46.91
2022-11-13T02:10:55.908Z,48.50
2022-11-13T02:11:55.914Z,46.26
2022-11-13T02:12:55.906Z,45.45
2022-11-13T02:13:55.878Z,48.21
2022-11-13T02:14:55.860Z,49.39
2022-11-13T02:15:55.859Z,56.53
2022-11-13T02:16:55.837Z,52.12
2022-11-13T02:17:55.862Z,47.46
2022-11-13T02:18:55.821Z,52.36
2022-11-13T02:19:55.806Z,48.97
2022-11-13T02:20:55.800Z,45.78
2022-11-13T02:21:55.788Z,51.29
2022-11-13T02:22:55.787Z,50.88
2022-11-13T02:23:55.796Z,45.63
2022-11-13T02:24:55.761Z,47.93
2022-11-13T02:25:55.834Z,51.20
2022-11-13T02:26:55.752Z,50.91
2022-11-13T02:27:55.760Z,52.59
2022-11-13T02:28:55.785Z,46.09
2022-11-13T02:29:55.769Z,46.53
2022-11-13T02:30:55.733Z,45.80
2022-11-13T02:31:55.701Z,47.65
2022-11-13T02:32:55.703Z,46.10
2022-11-13T02:33:55.670Z,46.45
2022-11-13T02:34:55.674Z,44.42
2022-11-13T02:35:55.647Z,46.94
2022-11-13T02:36:55.636Z,45.34
2022-11-13T02:37:55.626Z,48.13
2022-11-13T02:38:55.704Z,46.42
2022-11-13T02:39:55.623Z,45.11
2022-11-13T02:40:55.681Z,44.63
2022-11-13T02:41:55.662Z,44.19
2022-11-13T02:42:55.585Z,43.97
2022-11-13T02:43:55.579Z,48.39
2022-11-13T02:44:55.615Z,47.19
2022-11-13T02:45:55.577Z,51.67
2022-11-13T02:46:55.627Z,61.57
2022-11-13T02:47:55.542Z,48.76
2022-11-13T02:49:27.434Z,48.24
2022-11-13T02:49:55.533Z,45.17
2022-11-13T02:50:55.543Z,46.43
2022-11-13T02:51:55.506Z,48.33
2022-11-13T02:52:55.549Z,50.23
2022-11-13T02:53:55.482Z,51.20
2022-11-13T02:54:55.487Z,61.41
2022-11-13T02:55:55.470Z,45.57
2022-11-13T02:56:55.482Z,49.86
2022-11-13T02:57:55.533Z,51.24
2022-11-13T02:58:55.451Z,45.13
2022-11-13T02:59:55.493Z,44.54
2022-11-13T03:00:55.409Z,44.09
2022-11-13T03:01:55.499Z,44.74
2022-11-13T03:02:55.388Z,46.46
2022-11-13T03:03:57.714Z,55.63
2022-11-13T03:05:13.332Z,57.55
2022-11-13T03:05:57.415Z,50.01
2022-11-13T03:06:55.488Z,49.57
2022-11-13T03:07:55.384Z,48.77
2022-11-13T03:08:55.333Z,44.56
2022-11-13T03:09:55.334Z,44.43
2022-11-13T03:10:55.311Z,44.35
2022-11-13T03:11:55.304Z,53.09
2022-11-13T03:12:55.329Z,45.14
2022-11-13T03:13:55.357Z,44.74
2022-11-13T03:14:55.306Z,43.85
2022-11-13T03:15:55.301Z,44.44
2022-11-13T03:16:55.297Z,49.84
2022-11-13T03:17:55.258Z,48.00
2022-11-13T03:18:55.261Z,44.37
2022-11-13T03:19:55.260Z,45.84
2022-11-13T03:20:55.219Z,51.87
2022-11-13T03:21:55.204Z,50.37
2022-11-13T03:22:55.189Z,44.62
2022-11-13T03:23:55.211Z,44.48
2022-11-13T03:24:55.201Z,50.78
2022-11-13T03:25:55.163Z,47.31
2022-11-13T03:26:55.173Z,45.01
2022-11-13T03:27:55.133Z,45.68
2022-11-13T03:28:55.165Z,47.01
2022-11-13T03:29:55.246Z,46.25
2022-11-13T03:30:55.121Z,47.66
2022-11-13T03:31:55.098Z,45.28
2022-11-13T03:32:55.092Z,44.46
2022-11-13T03:33:55.091Z,46.14
2022-11-13T03:34:55.077Z,46.33
2022-11-13T03:35:55.084Z,48.01
2022-11-13T03:36:55.108Z,50.72
2022-11-13T03:37:55.162Z,47.72
2022-11-13T03:38:55.039Z,48.33
2022-11-13T03:39:55.134Z,44.09
2022-11-13T03:40:55.019Z,45.90
2022-11-13T03:41:55.020Z,50.61
2022-11-13T03:42:55.030Z,48.99
2022-11-13T03:43:54.993Z,48.66
2022-11-13T03:44:54.992Z,46.96
2022-11-13T03:45:55.098Z,50.68
2022-11-13T03:46:54.961Z,58.75
2022-11-13T03:47:54.942Z,45.79
2022-11-13T03:48:54.941Z,59.34
2022-11-13T03:49:54.952Z,50.26
2022-11-13T03:50:54.915Z,52.52
2022-11-13T03:51:54.919Z,45.24
2022-11-13T03:52:54.893Z,49.36
2022-11-13T03:53:54.893Z,47.32
2022-11-13T03:54:54.877Z,46.51
2022-11-13T03:55:54.882Z,45.42
2022-11-13T03:56:54.891Z,48.11
2022-11-13T03:57:54.845Z,50.87
2022-11-13T03:58:54.851Z,47.34
2022-11-13T03:59:54.828Z,47.66
2022-11-13T04:00:54.840Z,51.93
2022-11-13T04:01:54.992Z,52.65
2022-11-13T04:02:54.793Z,66.20
2022-11-13T04:03:54.856Z,49.94
2022-11-13T04:04:54.793Z,52.53
2022-11-13T04:05:54.767Z,57.85
2022-11-13T04:06:54.824Z,54.76
2022-11-13T04:07:54.776Z,49.05
2022-11-13T04:08:54.766Z,47.42
2022-11-13T04:09:54.769Z,51.83
2022-11-13T04:10:54.726Z,47.13
2022-11-13T04:11:54.734Z,49.49
2022-11-13T04:12:54.705Z,46.37
2022-11-13T04:13:54.723Z,64.70
2022-11-13T04:14:54.682Z,52.02
2022-11-13T04:15:54.703Z,51.69
2022-11-13T04:16:54.673Z,47.32
2022-11-13T04:17:54.735Z,47.75
2022-11-13T04:18:54.647Z,58.05
2022-11-13T04:19:54.630Z,50.42
2022-11-13T04:20:54.669Z,50.19
2022-11-13T04:21:54.668Z,49.52
2022-11-13T04:22:54.625Z,46.09
2022-11-13T04:23:54.660Z,44.88
2022-11-13T04:24:54.610Z,46.48
2022-11-13T04:25:54.601Z,48.91
2022-11-13T04:26:54.628Z,45.96
2022-11-13T04:27:54.559Z,49.69
2022-11-13T04:28:54.565Z,51.73
2022-11-13T04:29:54.595Z,50.62
2022-11-13T04:30:54.512Z,47.52
2022-11-13T04:31:54.564Z,48.14
2022-11-13T04:32:54.515Z,47.23
2022-11-13T04:33:54.578Z,50.23
2022-11-13T04:34:54.498Z,47.92
2022-11-13T04:35:54.507Z,48.72
2022-11-13T04:36:54.494Z,45.70
2022-11-13T04:37:54.592Z,45.49
2022-11-13T04:38:54.463Z,48.65
2022-11-13T04:39:54.440Z,49.65
2022-11-13T04:40:54.490Z,44.74
2022-11-13T04:41:55.666Z,50.62
2022-11-13T04:42:55.415Z,52.50
2022-11-13T04:43:54.466Z,52.43
2022-11-13T04:44:54.430Z,54.95
2022-11-13T04:45:54.397Z,47.37
2022-11-13T04:46:54.387Z,49.82
2022-11-13T04:47:54.394Z,50.42
2022-11-13T04:48:54.381Z,63.04
2022-11-13T04:49:54.423Z,47.93
2022-11-13T04:50:54.334Z,46.24
2022-11-13T04:51:54.333Z,46.18
2022-11-13T04:52:54.339Z,45.98
2022-11-13T04:53:54.350Z,47.31
2022-11-13T04:54:54.320Z,49.00
2022-11-13T04:55:54.293Z,66.00
2022-11-13T04:56:54.286Z,47.00
2022-11-13T04:57:54.276Z,51.11
2022-11-13T04:58:54.277Z,50.08
2022-11-13T04:59:54.247Z,58.89
2022-11-13T05:00:54.239Z,47.54
2022-11-13T05:01:54.273Z,46.66
2022-11-13T05:02:54.225Z,46.06
2022-11-13T05:03:54.263Z,47.89
2022-11-13T05:04:54.198Z,50.10
2022-11-13T05:05:54.255Z,47.61
2022-11-13T05:06:54.222Z,47.05
2022-11-13T05:07:54.200Z,49.93
2022-11-13T05:08:54.239Z,46.39
2022-11-13T05:09:54.148Z,49.23
2022-11-13T05:10:55.138Z,50.62
2022-11-13T05:11:54.129Z,55.21
2022-11-13T05:12:54.111Z,53.14
2022-11-13T05:13:54.103Z,53.14
2022-11-13T05:14:54.121Z,55.80
2022-11-13T05:15:54.082Z,48.89
2022-11-13T05:16:54.116Z,46.54
2022-11-13T05:17:54.073Z,47.01
2022-11-13T05:18:54.108Z,51.66
2022-11-13T05:19:54.065Z,47.71
2022-11-13T05:20:54.121Z,62.00
2022-11-13T05:21:54.132Z,48.06
2022-11-13T05:22:54.022Z,48.52
2022-11-13T05:23:54.009Z,49.97
2022-11-13T05:24:54.052Z,46.36
2022-11-13T05:25:54.000Z,45.63
2022-11-13T05:26:54.013Z,50.46
2022-11-13T05:27:53.978Z,49.34
2022-11-13T05:28:53.994Z,50.18
2022-11-13T05:29:53.962Z,50.82
2022-11-13T05:30:53.994Z,54.18
2022-11-13T05:31:53.965Z,57.35
2022-11-13T05:32:53.962Z,52.65
2022-11-13T05:33:54.008Z,51.83
2022-11-13T05:34:53.914Z,60.43
2022-11-13T05:35:53.928Z,45.44
2022-11-13T05:36:53.885Z,47.54
2022-11-13T05:37:53.970Z,45.53
2022-11-13T05:38:53.872Z,48.90
2022-11-13T05:39:53.868Z,47.50
2022-11-13T05:40:53.849Z,65.78
2022-11-13T05:41:53.872Z,60.57
2022-11-13T05:42:53.843Z,59.11
2022-11-13T05:43:59.032Z,47.44
2022-11-13T05:44:55.844Z,47.15
2022-11-13T05:45:53.810Z,53.74
2022-11-13T05:46:53.780Z,49.95
2022-11-13T05:47:53.772Z,48.95
2022-11-13T05:48:53.834Z,49.35
2022-11-13T05:49:53.764Z,50.83
2022-11-13T05:50:53.756Z,50.30
2022-11-13T05:51:53.748Z,59.48
2022-11-13T05:52:53.732Z,52.73
2022-11-13T05:53:53.802Z,50.36
2022-11-13T05:54:53.759Z,49.44
2022-11-13T05:55:53.720Z,46.29
2022-11-13T05:56:53.693Z,54.53
2022-11-13T05:57:53.683Z,48.45
2022-11-13T05:58:53.686Z,48.86
2022-11-13T05:59:53.671Z,47.13
2022-11-13T06:00:53.668Z,49.04
2022-11-13T06:01:53.706Z,48.78
2022-11-13T06:02:53.656Z,59.56
2022-11-13T06:03:53.624Z,45.88
2022-11-13T06:04:56.544Z,49.22
2022-11-13T06:05:54.617Z,49.37
2022-11-13T06:06:53.632Z,47.79
2022-11-13T06:07:53.599Z,48.29
2022-11-13T06:08:53.604Z,49.21
2022-11-13T06:09:53.737Z,46.90
2022-11-13T06:10:53.562Z,47.50
2022-11-13T06:11:53.576Z,49.81
2022-11-13T06:12:53.617Z,50.60
2022-11-13T06:13:53.573Z,48.70
2022-11-13T06:14:53.523Z,45.47
2022-11-13T06:15:53.555Z,44.92
2022-11-13T06:16:53.581Z,46.17
2022-11-13T06:17:53.496Z,47.26
2022-11-13T06:18:53.495Z,50.07
2022-11-13T06:19:53.476Z,47.37
2022-11-13T06:20:53.460Z,49.52
2022-11-13T06:21:53.463Z,61.91
2022-11-13T06:22:53.447Z,50.68
2022-11-13T06:23:53.433Z,52.29
2022-11-13T06:24:53.480Z,50.80
2022-11-13T06:25:53.495Z,51.09
2022-11-13T06:26:53.449Z,46.29
2022-11-13T06:27:53.391Z,45.90
2022-11-13T06:28:53.394Z,45.89
2022-11-13T06:29:53.374Z,48.11
2022-11-13T06:30:53.361Z,49.62
2022-11-13T06:31:53.372Z,51.42
2022-11-13T06:32:53.343Z,50.36
2022-11-13T06:33:53.338Z,48.06
2022-11-13T06:34:53.315Z,49.39
2022-11-13T06:35:54.321Z,45.20
2022-11-13T06:36:53.325Z,49.34
2022-11-13T06:37:53.295Z,49.85
2022-11-13T06:38:53.335Z,47.27
2022-11-13T06:39:53.351Z,50.87
2022-11-13T06:40:53.343Z,50.13
2022-11-13T06:41:53.329Z,49.14
2022-11-13T06:42:53.249Z,50.09
2022-11-13T06:43:53.230Z,49.43
2022-11-13T06:44:53.231Z,52.38
2022-11-13T06:45:53.223Z,51.65
2022-11-13T06:46:53.208Z,50.73
2022-11-13T06:47:53.195Z,51.11
2022-11-13T06:48:53.190Z,53.30
2022-11-13T06:49:53.186Z,48.72
2022-11-13T06:50:53.176Z,49.31
2022-11-13T06:51:53.142Z,46.92
2022-11-13T06:52:53.145Z,47.85
2022-11-13T06:53:53.180Z,52.42
2022-11-13T06:54:53.144Z,51.13
2022-11-13T06:55:53.194Z,51.38
2022-11-13T06:56:53.115Z,46.12
2022-11-13T06:57:53.172Z,49.81
2022-11-13T06:58:53.111Z,50.52
2022-11-13T06:59:53.069Z,50.11
2022-11-13T07:00:53.146Z,46.13
2022-11-13T07:01:53.058Z,52.46
2022-11-13T07:02:53.078Z,47.48
2022-11-13T07:03:53.051Z,46.53
2022-11-13T07:04:53.178Z,46.76
2022-11-13T07:05:53.024Z,48.61
2022-11-13T07:06:53.064Z,47.45
2022-11-13T07:07:53.112Z,49.53
2022-11-13T07:08:53.005Z,51.61
2022-11-13T07:09:52.992Z,51.04
2022-11-13T07:10:52.964Z,46.41
2022-11-13T07:11:52.967Z,50.93
2022-11-13T07:12:54.811Z,47.99
2022-11-13T07:13:54.026Z,56.18
2022-11-13T07:14:52.947Z,50.44
2022-11-13T07:15:52.936Z,51.75
2022-11-13T07:17:10.041Z,54.48
2022-11-13T07:17:53.896Z,53.87
2022-11-13T07:18:52.893Z,54.95
2022-11-13T07:19:52.908Z,47.95
2022-11-13T07:20:52.930Z,53.15
2022-11-13T07:21:52.877Z,50.60
2022-11-13T07:22:52.869Z,50.26
2022-11-13T07:23:52.863Z,57.79
2022-11-13T07:24:52.856Z,52.18
2022-11-13T07:25:52.830Z,52.76
2022-11-13T07:26:52.811Z,55.41
2022-11-13T07:27:52.847Z,71.65
2022-11-13T07:28:52.791Z,53.27
2022-11-13T07:29:52.878Z,52.67
2022-11-13T07:30:52.773Z,50.56
2022-11-13T07:31:52.750Z,47.77
2022-11-13T07:32:52.804Z,52.49
2022-11-13T07:33:52.730Z,52.85
2022-11-13T07:34:52.740Z,52.14
2022-11-13T07:35:52.717Z,55.92
2022-11-13T07:36:52.731Z,57.60
2022-11-13T07:37:52.688Z,50.44
2022-11-13T07:38:56.679Z,54.17
2022-11-13T07:39:53.684Z,51.33
2022-11-13T07:40:52.677Z,51.40
2022-11-13T07:41:52.712Z,49.62
2022-11-13T07:42:52.653Z,51.55
2022-11-13T07:43:52.678Z,50.21
2022-11-13T07:44:54.901Z,46.70
2022-11-13T07:45:53.696Z,56.18
2022-11-13T07:46:52.614Z,53.09
2022-11-13T07:47:52.632Z,54.84
2022-11-13T07:48:52.607Z,58.24
2022-11-13T07:49:55.372Z,60.16
2022-11-13T07:50:53.589Z,57.83
2022-11-13T07:51:52.573Z,57.00
2022-11-13T07:52:52.560Z,53.46
2022-11-13T07:53:52.578Z,50.47
2022-11-13T07:54:52.549Z,51.18
2022-11-13T07:55:52.525Z,51.43
2022-11-13T07:56:52.525Z,52.61
2022-11-13T07:57:52.508Z,53.63
2022-11-13T07:58:52.519Z,52.56
2022-11-13T07:59:52.494Z,48.92
2022-11-13T08:00:53.512Z,52.72
2022-11-13T08:01:52.534Z,52.94
2022-11-13T08:02:52.490Z,53.14
2022-11-13T08:03:52.510Z,50.38
2022-11-13T08:04:52.447Z,51.99
2022-11-13T08:05:52.424Z,56.19
2022-11-13T08:06:52.446Z,51.68
2022-11-13T08:07:52.439Z,56.43
2022-11-13T08:08:52.392Z,54.28
2022-11-13T08:09:52.516Z,60.38
2022-11-13T08:10:52.384Z,56.11
2022-11-13T08:11:52.377Z,54.12
2022-11-13T08:12:52.359Z,54.79
2022-11-13T08:13:52.346Z,54.94
2022-11-13T08:14:52.351Z,56.01
2022-11-13T08:15:52.349Z,58.42
2022-11-13T08:16:52.355Z,52.58
2022-11-13T08:17:52.385Z,53.52
2022-11-13T08:18:53.309Z,53.97
2022-11-13T08:19:52.327Z,54.91
2022-11-13T08:20:52.280Z,51.53
2022-11-13T08:21:52.281Z,66.46
2022-11-13T08:23:03.495Z,56.56
2022-11-13T08:23:53.290Z,54.72
2022-11-13T08:24:52.357Z,55.80
2022-11-13T08:25:52.252Z,54.92
2022-11-13T08:26:52.229Z,59.87
2022-11-13T08:27:52.215Z,61.45
2022-11-13T08:28:52.228Z,53.98
2022-11-13T08:29:52.215Z,56.61
2022-11-13T08:30:52.331Z,53.29
2022-11-13T08:31:52.166Z,55.30
2022-11-13T08:32:52.190Z,55.70
2022-11-13T08:33:52.266Z,59.58
2022-11-13T08:34:52.187Z,55.94
2022-11-13T08:35:52.145Z,55.30
2022-11-13T08:36:52.123Z,61.51
2022-11-13T08:37:52.119Z,60.84
2022-11-13T08:38:52.127Z,55.27
2022-11-13T08:39:52.111Z,56.70
2022-11-13T08:40:52.087Z,57.84
2022-11-13T08:41:52.067Z,58.40
2022-11-13T08:42:52.073Z,56.34
2022-11-13T08:43:52.056Z,56.64
2022-11-13T08:44:52.067Z,55.43
2022-11-13T08:45:52.035Z,56.62
2022-11-13T08:46:52.019Z,59.02
2022-11-13T08:47:52.015Z,61.10
2022-11-13T08:48:52.009Z,55.97
2022-11-13T08:50:23.989Z,59.02
2022-11-13T08:50:51.974Z,61.33
2022-11-13T08:51:51.969Z,54.05
2022-11-13T08:52:51.988Z,56.60
2022-11-13T08:53:51.958Z,56.60
2022-11-13T08:54:51.951Z,56.35
2022-11-13T08:55:51.950Z,55.52
2022-11-13T08:56:56.588Z,57.57
2022-11-13T08:57:53.911Z,55.01
2022-11-13T08:58:51.913Z,56.90
2022-11-13T08:59:51.892Z,55.00
2022-11-13T09:00:51.955Z,55.47
2022-11-13T09:01:51.905Z,56.98
2022-11-13T09:02:51.861Z,56.20
2022-11-13T09:03:51.896Z,54.74
2022-11-13T09:04:51.838Z,55.70
2022-11-13T09:05:51.910Z,56.02
2022-11-13T09:06:51.870Z,56.35
2022-11-13T09:07:51.812Z,57.37
2022-11-13T09:08:51.798Z,53.52
2022-11-13T09:09:51.773Z,57.51
2022-11-13T09:10:51.780Z,56.42
2022-11-13T09:11:51.790Z,54.88
2022-11-13T09:12:51.762Z,57.74
2022-11-13T09:13:53.522Z,58.73
2022-11-13T09:14:51.733Z,57.49
2022-11-13T09:15:51.756Z,53.64
2022-11-13T09:16:51.717Z,54.79
2022-11-13T09:17:51.701Z,57.61
2022-11-13T09:18:51.705Z,56.46
2022-11-13T09:19:51.683Z,57.01
2022-11-13T09:20:51.679Z,55.57
2022-11-13T09:21:51.755Z,54.18
2022-11-13T09:22:51.656Z,54.21
2022-11-13T09:23:51.691Z,54.94
2022-11-13T09:24:51.627Z,58.13
2022-11-13T09:25:51.624Z,56.39
2022-11-13T09:26:51.611Z,55.83
2022-11-13T09:27:51.628Z,55.91
2022-11-13T09:28:51.616Z,63.28
2022-11-13T09:29:55.559Z,55.45
2022-11-13T09:30:52.581Z,53.93
2022-11-13T09:31:51.566Z,53.89
2022-11-13T09:32:51.563Z,62.74
2022-11-13T09:33:51.596Z,55.82
2022-11-13T09:34:51.542Z,54.16
2022-11-13T09:35:51.545Z,55.03
2022-11-13T09:36:51.512Z,53.96
2022-11-13T09:37:51.582Z,55.68
2022-11-13T09:38:51.498Z,59.77
2022-11-13T09:39:51.511Z,60.41
2022-11-13T09:40:51.513Z,56.88
2022-11-13T09:41:52.490Z,64.51
2022-11-13T09:42:51.521Z,56.81
2022-11-13T09:43:55.219Z,57.15
2022-11-13T09:44:52.516Z,57.06
2022-11-13T09:45:51.440Z,54.66
2022-11-13T09:46:51.429Z,54.28
2022-11-13T09:47:51.422Z,56.99
2022-11-13T09:48:51.393Z,57.73
2022-11-13T09:49:51.418Z,59.18
2022-11-13T09:50:51.400Z,59.12
2022-11-13T09:51:51.371Z,57.50
2022-11-13T09:52:51.358Z,56.42
2022-11-13T09:53:51.451Z,58.11
2022-11-13T09:54:51.448Z,57.49
2022-11-13T09:55:51.324Z,55.03
2022-11-13T09:56:51.319Z,58.95
2022-11-13T09:57:51.313Z,61.64
2022-11-13T09:58:51.292Z,58.16
2022-11-13T09:59:51.296Z,64.81
2022-11-13T10:00:51.307Z,59.35
2022-11-13T10:01:51.278Z,59.70
2022-11-13T10:02:51.255Z,59.22
2022-11-13T10:04:01.629Z,60.02
2022-11-13T10:04:53.239Z,59.35
2022-11-13T10:05:51.235Z,58.61
2022-11-13T10:06:51.291Z,56.08
2022-11-13T10:07:51.218Z,56.38
2022-11-13T10:08:51.225Z,55.10
2022-11-13T10:09:51.266Z,55.20
2022-11-13T10:10:55.442Z,56.50
2022-11-13T10:11:52.159Z,56.94
2022-11-13T10:12:51.170Z,58.48
2022-11-13T10:13:51.143Z,60.20
2022-11-13T10:14:51.130Z,56.80
2022-11-13T10:15:51.117Z,60.34
2022-11-13T10:16:51.173Z,57.72
2022-11-13T10:17:51.117Z,56.11
2022-11-13T10:18:51.082Z,58.17
2022-11-13T10:19:51.075Z,59.21
2022-11-13T10:20:51.091Z,63.98
2022-11-13T10:21:54.997Z,57.68
2022-11-13T10:22:53.047Z,57.84
2022-11-13T10:23:51.044Z,57.10
2022-11-13T10:24:51.047Z,58.02
2022-11-13T10:25:51.139Z,58.82
2022-11-13T10:26:51.004Z,57.85
2022-11-13T10:27:51.080Z,55.76
2022-11-13T10:28:51.733Z,54.99
2022-11-13T10:29:51.980Z,59.21
2022-11-13T10:30:51.033Z,56.61
2022-11-13T10:31:50.995Z,57.26
2022-11-13T10:32:50.952Z,57.74
2022-11-13T10:33:50.953Z,57.03
2022-11-13T10:34:50.936Z,60.37
2022-11-13T10:35:50.925Z,58.13
2022-11-13T10:36:50.943Z,57.32
2022-11-13T10:37:50.894Z,57.31
2022-11-13T10:38:50.942Z,58.45
2022-11-13T10:39:50.917Z,56.49
2022-11-13T10:40:50.871Z,56.31
2022-11-13T10:41:50.932Z,55.10
2022-11-13T10:42:50.858Z,58.38
2022-11-13T10:43:50.920Z,58.75
2022-11-13T10:44:50.830Z,59.29
2022-11-13T10:45:50.814Z,59.05
2022-11-13T10:46:50.889Z,57.63
2022-11-13T10:48:03.688Z,57.94
2022-11-13T10:48:52.822Z,61.33
2022-11-13T10:49:50.777Z,61.49
2022-11-13T10:50:50.783Z,62.35
2022-11-13T10:51:50.781Z,60.02
2022-11-13T10:52:50.743Z,58.66
2022-11-13T10:53:50.739Z,59.73
2022-11-13T10:54:50.727Z,59.54
2022-11-13T10:55:50.759Z,60.12
2022-11-13T10:56:50.751Z,59.98
2022-11-13T10:57:56.144Z,59.19
2022-11-13T10:58:52.699Z,57.89
2022-11-13T10:59:50.690Z,58.24
2022-11-13T11:00:50.708Z,59.73
2022-11-13T11:01:50.689Z,60.14
2022-11-13T11:02:50.738Z,59.34
2022-11-13T11:03:50.633Z,59.08
2022-11-13T11:04:50.636Z,58.56
2022-11-13T11:05:50.642Z,58.61
2022-11-13T11:07:19.053Z,57.02
2022-11-13T11:07:52.667Z,57.80
2022-11-13T11:08:50.589Z,58.46
2022-11-13T11:09:50.595Z,58.96
2022-11-13T11:10:50.604Z,56.80
2022-11-13T11:11:50.562Z,56.80
2022-11-13T11:12:50.646Z,58.89
2022-11-13T11:13:50.609Z,58.97
2022-11-13T11:14:50.547Z,57.46
2022-11-13T11:15:50.553Z,58.82
2022-11-13T11:16:50.594Z,60.28
2022-11-13T11:17:50.500Z,57.75
2022-11-13T11:18:50.519Z,56.58
2022-11-13T11:19:50.523Z,60.71
2022-11-13T11:20:50.482Z,59.61
2022-11-13T11:21:50.487Z,57.84
2022-11-13T11:22:50.447Z,56.23
2022-11-13T11:23:54.745Z,56.83
2022-11-13T11:24:51.472Z,56.82
2022-11-13T11:25:50.424Z,56.71
2022-11-13T11:26:50.418Z,56.77
2022-11-13T11:27:50.393Z,59.49
2022-11-13T11:28:50.405Z,59.31
2022-11-13T11:29:50.489Z,57.15
2022-11-13T11:30:50.391Z,57.69
2022-11-13T11:31:50.364Z,60.52
2022-11-13T11:32:50.359Z,56.96
2022-11-13T11:33:50.355Z,59.33
2022-11-13T11:34:53.739Z,59.25
2022-11-13T11:35:51.335Z,56.42
2022-11-13T11:36:50.316Z,57.81
2022-11-13T11:37:50.316Z,63.51
2022-11-13T11:38:50.334Z,59.68
2022-11-13T11:39:50.324Z,58.02
2022-11-13T11:40:50.269Z,56.80
2022-11-13T11:41:50.264Z,60.74
2022-11-13T11:42:50.278Z,55.66
2022-11-13T11:43:50.271Z,56.56
2022-11-13T11:44:50.264Z,58.22
2022-11-13T11:45:50.305Z,57.85
2022-11-13T11:46:50.222Z,57.60
2022-11-13T11:47:50.250Z,63.97
2022-11-13T11:48:50.248Z,57.26
2022-11-13T11:49:50.188Z,57.71
2022-11-13T11:50:50.168Z,65.85
2022-11-13T11:51:51.182Z,56.16
2022-11-13T11:52:50.200Z,57.75
2022-11-13T11:53:50.145Z,58.12
2022-11-13T11:54:50.126Z,55.38
2022-11-13T11:55:50.134Z,58.02
2022-11-13T11:56:50.130Z,58.20
2022-11-13T11:57:50.115Z,55.64
2022-11-13T11:58:50.112Z,57.00
2022-11-13T11:59:50.079Z,57.55
2022-11-13T12:00:50.096Z,57.94
2022-11-13T12:01:50.170Z,54.62
2022-11-13T12:02:50.096Z,55.65
2022-11-13T12:03:50.067Z,57.62
2022-11-13T12:04:50.070Z,55.99
2022-11-13T12:05:50.031Z,55.62
2022-11-13T12:06:50.142Z,56.65
2022-11-13T12:07:50.005Z,57.78
2022-11-13T12:08:49.998Z,59.34
2022-11-13T12:09:49.972Z,52.08
2022-11-13T12:10:50.015Z,56.89
2022-11-13T12:11:50.036Z,64.57
2022-11-13T12:12:50.037Z,58.71
2022-11-13T12:13:49.945Z,56.86
2022-11-13T12:14:49.930Z,55.99
2022-11-13T12:15:49.922Z,58.28
2022-11-13T12:16:49.894Z,55.95
2022-11-13T12:17:49.980Z,54.26
2022-11-13T12:18:49.878Z,56.93
2022-11-13T12:19:49.883Z,54.37
2022-11-13T12:20:49.861Z,56.78
2022-11-13T12:21:50.845Z,56.06
2022-11-13T12:22:49.850Z,56.93
2022-11-13T12:23:49.855Z,58.32
2022-11-13T12:24:49.818Z,59.01
2022-11-13T12:25:49.817Z,57.50
2022-11-13T12:26:49.818Z,57.49
2022-11-13T12:27:49.811Z,59.35
2022-11-13T12:28:49.805Z,57.89
2022-11-13T12:29:49.773Z,55.33
2022-11-13T12:30:49.766Z,57.87
2022-11-13T12:31:49.751Z,59.77
2022-11-13T12:32:49.759Z,58.34
2022-11-13T12:33:49.821Z,58.28
2022-11-13T12:34:49.777Z,57.73
2022-11-13T12:35:49.764Z,56.81
2022-11-13T12:36:49.726Z,57.47
2022-11-13T12:37:49.690Z,56.92
2022-11-13T12:38:49.717Z,60.36
2022-11-13T12:39:49.735Z,55.67
2022-11-13T12:40:49.649Z,56.97
2022-11-13T12:41:49.649Z,57.27
2022-11-13T12:42:49.657Z,60.05
2022-11-13T12:43:49.614Z,57.17
2022-11-13T12:44:50.621Z,56.53
2022-11-13T12:45:49.625Z,55.91
2022-11-13T12:46:49.594Z,56.81
2022-11-13T12:47:49.742Z,57.51
2022-11-13T12:48:49.572Z,59.05
2022-11-13T12:49:49.690Z,58.76
2022-11-13T12:50:50.571Z,57.12
2022-11-13T12:51:49.556Z,58.30
2022-11-13T12:52:49.561Z,56.46
2022-11-13T12:53:49.545Z,56.20